sensor_id;sensor_type;location;lat;lon;timestamp;pressure;altitude;pressure_sealevel;temperature;humidity
68199;BME280;55021;51.554;17.044;2024-03-17T00:12:07;101024.84;;;6.44;82.37
68199;BME280;55021;51.554;17.044;2024-03-17T00:27:10;101012.06;;;5.90;83.00
68199;BME280;55021;51.554;17.044;2024-03-17T00:42:12;101048.72;;;6.59;79.19
68199;BME280;55021;51.554;17.044;2024-03-17T00:57:15;100993.91;;;5.70;81.98
68199;BME280;55021;51.554;17.044;2024-03-17T01:12:18;101055.19;;;5.78;83.51
68199;BME280;55021;51.554;17.044;2024-03-17T01:27:27;101051.97;;;5.73;83.52
68199;BME280;55021;51.554;17.044;2024-03-17T01:42:29;101063.28;;;5.54;84.74
68199;BME280;55021;51.554;17.044;2024-03-17T01:57:33;101070.19;;;4.98;86.47
68199;BME280;55021;51.554;17.044;2024-03-17T02:12:35;101067.22;;;4.90;85.75
68199;BME280;55021;51.554;17.044;2024-03-17T02:27:38;101072.03;;;4.85;85.91
68199;BME280;55021;51.554;17.044;2024-03-17T02:42:40;101081.19;;;4.45;87.33
68199;BME280;55021;51.554;17.044;2024-03-17T02:57:48;101080.63;;;4.77;85.08
68199;BME280;55021;51.554;17.044;2024-03-17T03:12:50;101096.31;;;4.58;85.34
68199;BME280;55021;51.554;17.044;2024-03-17T03:27:53;101103.97;;;4.39;84.31
68199;BME280;55021;51.554;17.044;2024-03-17T03:42:58;101084.16;;;3.90;86.20
68199;BME280;55021;51.554;17.044;2024-03-17T03:58:01;101030.09;;;4.33;82.96
68199;BME280;55021;51.554;17.044;2024-03-17T04:13:06;100999.19;;;3.90;82.92
68199;BME280;55021;51.554;17.044;2024-03-17T04:28:08;101118.97;;;4.79;84.84
68199;BME280;55021;51.554;17.044;2024-03-17T04:43:12;101058.13;;;3.92;88.00
68199;BME280;55021;51.554;17.044;2024-03-17T04:58:14;101126.19;;;4.54;86.35
68199;BME280;55021;51.554;17.044;2024-03-17T05:13:17;101121.03;;;4.13;87.97
68199;BME280;55021;51.554;17.044;2024-03-17T05:28:21;101126.09;;;4.30;86.58
68199;BME280;55021;51.554;17.044;2024-03-17T05:43:24;101079.03;;;4.12;86.28
68199;BME280;55021;51.554;17.044;2024-03-17T05:58:28;101148.31;;;4.70;86.68
68199;BME280;55021;51.554;17.044;2024-03-17T06:13:31;101096.28;;;3.83;87.15
68199;BME280;55021;51.554;17.044;2024-03-17T06:28:35;101183.56;;;4.65;86.46
68199;BME280;55021;51.554;17.044;2024-03-17T06:43:38;101151.63;;;4.35;83.86
68199;BME280;55021;51.554;17.044;2024-03-17T06:58:40;101200.00;;;4.98;82.10
68199;BME280;55021;51.554;17.044;2024-03-17T07:13:43;101138.88;;;4.52;83.41
68199;BME280;55021;51.554;17.044;2024-03-17T07:28:45;101216.72;;;5.52;81.72
68199;BME280;55021;51.554;17.044;2024-03-17T07:43:47;101222.25;;;5.13;81.60
68199;BME280;55021;51.554;17.044;2024-03-17T07:58:49;101232.13;;;5.98;78.67
68199;BME280;55021;51.554;17.044;2024-03-17T08:13:52;101182.06;;;5.48;80.06
68199;BME280;55021;51.554;17.044;2024-03-17T08:28:54;101223.81;;;6.25;77.90
68199;BME280;55021;51.554;17.044;2024-03-17T08:43:57;101171.69;;;6.26;76.93
68199;BME280;55021;51.554;17.044;2024-03-17T08:58:59;101221.56;;;6.42;77.07
68199;BME280;55021;51.554;17.044;2024-03-17T09:14:03;101236.31;;;6.26;77.06
68199;BME280;55021;51.554;17.044;2024-03-17T09:29:06;101230.38;;;6.90;76.26
68199;BME280;55021;51.554;17.044;2024-03-17T09:44:12;101199.41;;;6.39;74.66
68199;BME280;55021;51.554;17.044;2024-03-17T09:59:14;101242.41;;;6.51;75.35
68199;BME280;55021;51.554;17.044;2024-03-17T10:14:20;101157.31;;;6.60;71.35
68199;BME280;55021;51.554;17.044;2024-03-17T10:29:25;101217.44;;;7.28;70.60
68199;BME280;55021;51.554;17.044;2024-03-17T10:44:28;101173.81;;;7.88;65.57
68199;BME280;55021;51.554;17.044;2024-03-17T10:59:35;101226.03;;;7.45;66.08
68199;BME280;55021;51.554;17.044;2024-03-17T11:14:40;101230.81;;;7.63;64.99
68199;BME280;55021;51.554;17.044;2024-03-17T11:29:42;101152.22;;;7.01;65.19
68199;BME280;55021;51.554;17.044;2024-03-17T11:44:45;101210.97;;;7.96;62.52
68199;BME280;55021;51.554;17.044;2024-03-17T11:59:56;101162.97;;;7.57;62.58
68199;BME280;55021;51.554;17.044;2024-03-17T12:14:59;101200.56;;;7.80;62.21
68199;BME280;55021;51.554;17.044;2024-03-17T12:30:04;101082.75;;;6.60;64.95
68199;BME280;55021;51.554;17.044;2024-03-17T12:45:11;101197.03;;;6.80;67.29
68199;BME280;55021;51.554;17.044;2024-03-17T13:00:23;101195.66;;;6.63;69.03
68199;BME280;55021;51.554;17.044;2024-03-17T13:15:26;101193.22;;;6.71;67.58
68199;BME280;55021;51.554;17.044;2024-03-17T13:30:29;101138.69;;;6.57;69.50
68199;BME280;55021;51.554;17.044;2024-03-17T13:45:39;101173.75;;;6.68;70.65
68199;BME280;55021;51.554;17.044;2024-03-17T14:00:42;101171.94;;;7.13;71.85
68199;BME280;55021;51.554;17.044;2024-03-17T14:15:44;101182.06;;;6.54;71.16
68199;BME280;55021;51.554;17.044;2024-03-17T14:30:47;101174.16;;;6.86;70.12
68199;BME280;55021;51.554;17.044;2024-03-17T14:45:49;101193.13;;;6.73;72.61
68199;BME280;55021;51.554;17.044;2024-03-17T15:00:52;101171.91;;;6.68;68.78
68199;BME280;55021;51.554;17.044;2024-03-17T15:15:55;101179.94;;;6.92;66.34
68199;BME280;55021;51.554;17.044;2024-03-17T15:31:02;101197.16;;;6.67;67.43
68199;BME280;55021;51.554;17.044;2024-03-17T15:46:07;101200.72;;;6.33;62.56
68199;BME280;55021;51.554;17.044;2024-03-17T16:01:12;101186.50;;;6.77;63.16
68199;BME280;55021;51.554;17.044;2024-03-17T16:16:15;101222.16;;;6.35;65.63
68199;BME280;55021;51.554;17.044;2024-03-17T16:31:19;101240.41;;;6.07;66.69
68199;BME280;55021;51.554;17.044;2024-03-17T17:01:37;101257.72;;;5.80;69.94
68199;BME280;55021;51.554;17.044;2024-03-17T17:16:39;101253.72;;;6.09;67.95
68199;BME280;55021;51.554;17.044;2024-03-17T17:31:42;101249.09;;;5.87;69.87
68199;BME280;55021;51.554;17.044;2024-03-17T17:46:44;101238.38;;;5.98;68.79
68199;BME280;55021;51.554;17.044;2024-03-17T18:01:47;101253.44;;;6.25;68.58
68199;BME280;55021;51.554;17.044;2024-03-17T18:16:49;101161.09;;;5.17;70.38
68199;BME280;55021;51.554;17.044;2024-03-17T18:31:51;101253.66;;;6.45;67.94
68199;BME280;55021;51.554;17.044;2024-03-17T18:46:55;101214.72;;;5.31;70.04
68199;BME280;55021;51.554;17.044;2024-03-17T19:01:57;101243.69;;;5.51;70.27
68199;BME280;55021;51.554;17.044;2024-03-17T19:17:00;101250.53;;;6.04;69.78
68199;BME280;55021;51.554;17.044;2024-03-17T19:32:02;101243.38;;;5.55;69.95
68199;BME280;55021;51.554;17.044;2024-03-17T19:47:05;101194.53;;;4.87;70.59
68199;BME280;55021;51.554;17.044;2024-03-17T20:02:07;101242.53;;;5.42;70.58
68199;BME280;55021;51.554;17.044;2024-03-17T20:17:13;101189.56;;;4.69;72.72
68199;BME280;55021;51.554;17.044;2024-03-17T20:32:15;101238.00;;;5.43;70.10
68199;BME280;55021;51.554;17.044;2024-03-17T20:47:17;101235.66;;;5.38;69.10
68199;BME280;55021;51.554;17.044;2024-03-17T21:02:20;101244.63;;;4.88;71.12
68199;BME280;55021;51.554;17.044;2024-03-17T21:17:22;101224.94;;;5.62;67.09
68199;BME280;55021;51.554;17.044;2024-03-17T21:32:24;101218.00;;;5.47;66.28
68199;BME280;55021;51.554;17.044;2024-03-17T21:47:27;101237.63;;;4.86;68.11
68199;BME280;55021;51.554;17.044;2024-03-17T22:02:29;101246.63;;;4.20;69.30
68199;BME280;55021;51.554;17.044;2024-03-17T22:17:31;101250.72;;;3.99;74.20
68199;BME280;55021;51.554;17.044;2024-03-17T22:32:34;101254.19;;;3.46;75.92
68199;BME280;55021;51.554;17.044;2024-03-17T22:47:36;101249.53;;;3.36;74.34
68199;BME280;55021;51.554;17.044;2024-03-17T23:02:39;101245.00;;;3.50;74.18
68199;BME280;55021;51.554;17.044;2024-03-17T23:17:41;101242.25;;;4.32;71.26
68199;BME280;55021;51.554;17.044;2024-03-17T23:32:43;101223.91;;;3.99;69.88
68199;BME280;55021;51.554;17.044;2024-03-17T23:47:46;101241.84;;;4.38;70.35
